Time;durP1;ratioP1;P1;durP2;ratioP2;P2;SDS_P1;SDS_P2;PMS_P1;PMS_P2;Temp;Humidity;BMP_temperature;BMP_pressure;BME280_temperature;BME280_humidity;BME280_pressure;Samples;Min_cycle;Max_cycle;Signal;HPM_P1;HPM_P2
2022/03/01 00:00:59;;;;;;;3.47;3.17;;;;;;;;;;5120932;28;20202;-71
2022/03/01 00:03:46;;;;;;;3.57;3.23;;;;;;;;;;5121647;28;20198;-70
2022/03/01 00:06:33;;;;;;;3.10;2.90;;;;;;;;;;5117782;28;20214;-70
2022/03/01 00:09:21;;;;;;;3.30;3.10;;;;;;;;;;5119491;28;20363;-71
2022/03/01 00:12:09;;;;;;;3.37;3.17;;;;;;;;;;5120644;28;20212;-72
2022/03/01 00:14:56;;;;;;;3.30;3.00;;;;;;;;;;5118106;28;20290;-71
2022/03/01 00:17:43;;;;;;;3.20;3.00;;;;;;;;;;5122765;28;20212;-71
2022/03/01 00:20:30;;;;;;;3.40;3.10;;;;;;;;;;5120132;28;20219;-71
2022/03/01 00:23:17;;;;;;;2.93;2.73;;;;;;;;;;5120422;28;20770;-71
2022/03/01 00:26:05;;;;;;;3.03;2.83;;;;;;;;;;5120811;28;20205;-71
2022/03/01 00:28:52;;;;;;;2.87;2.67;;;;;;;;;;5121759;27;20700;-70
2022/03/01 00:31:39;;;;;;;2.80;2.60;;;;;;;;;;5123803;27;20212;-71
2022/03/01 00:34:26;;;;;;;2.80;2.60;;;;;;;;;;5125087;27;20208;-70
2022/03/01 00:37:13;;;;;;;2.87;2.67;;;;;;;;;;5119471;27;20243;-70
2022/03/01 00:40:00;;;;;;;2.90;2.70;;;;;;;;;;5122475;27;20226;-71
2022/03/01 00:42:48;;;;;;;3.00;2.80;;;;;;;;;;5123665;27;20295;-71
2022/03/01 00:45:35;;;;;;;2.67;2.47;;;;;;;;;;5122867;27;20697;-71
2022/03/01 00:48:23;;;;;;;2.50;2.40;;;;;;;;;;5122406;27;20379;-70
2022/03/01 00:51:10;;;;;;;2.60;2.40;;;;;;;;;;5125152;27;20348;-71
2022/03/01 00:53:57;;;;;;;2.33;2.20;;;;;;;;;;5120656;27;20235;-71
2022/03/01 00:56:44;;;;;;;2.67;2.47;;;;;;;;;;5122700;27;20214;-71
2022/03/01 00:59:33;;;;;;;2.60;2.40;;;;;;;;;;5121806;27;20508;-71
2022/03/01 01:02:20;;;;;;;2.53;2.43;;;;;;;;;;5122081;27;20723;-70
2022/03/01 01:05:08;;;;;;;2.63;2.43;;;;;;;;;;5122154;27;20273;-71
2022/03/01 01:07:55;;;;;;;2.50;2.30;;;;;;;;;;5123788;27;20259;-71
2022/03/01 01:10:42;;;;;;;2.50;2.40;;;;;;;;;;5125323;27;20225;-70
2022/03/01 01:13:30;;;;;;;2.70;2.50;;;;;;;;;;5125275;27;20690;-71
2022/03/01 01:16:18;;;;;;;2.53;2.40;;;;;;;;;;5122051;27;20354;-71
2022/03/01 01:19:05;;;;;;;2.20;2.10;;;;;;;;;;5123274;27;20747;-71
2022/03/01 01:25:11;;;;;;;2.80;2.60;;;;;;;;;;5058818;28;20236;-70
2022/03/01 01:28:00;;;;;;;2.93;2.73;;;;;;;;;;5120819;27;20212;-71
2022/03/01 01:30:47;;;;;;;2.37;2.27;;;;;;;;;;5123464;27;20212;-71
2022/03/01 01:33:35;;;;;;;2.90;2.70;;;;;;;;;;5121908;27;20204;-71
2022/03/01 01:36:25;;;;;;;2.47;2.37;;;;;;;;;;5122950;27;20303;-71
2022/03/01 01:39:12;;;;;;;2.40;2.30;;;;;;;;;;5121189;27;20573;-71
2022/03/01 01:41:59;;;;;;;2.60;2.40;;;;;;;;;;5122885;27;20224;-71
2022/03/01 01:44:46;;;;;;;2.80;2.60;;;;;;;;;;5123991;27;20207;-70
2022/03/01 01:47:33;;;;;;;2.50;2.40;;;;;;;;;;5123156;27;20298;-71
2022/03/01 01:50:22;;;;;;;2.50;2.40;;;;;;;;;;5120663;27;20355;-71
2022/03/01 01:53:10;;;;;;;2.47;2.37;;;;;;;;;;5120840;27;20230;-71
2022/03/01 01:55:57;;;;;;;2.80;2.60;;;;;;;;;;5120445;27;20294;-71
2022/03/01 01:58:44;;;;;;;2.57;2.37;;;;;;;;;;5122368;27;20636;-70
2022/03/01 02:01:31;;;;;;;2.67;2.47;;;;;;;;;;5118977;27;20594;-71
2022/03/01 02:04:18;;;;;;;2.63;2.47;;;;;;;;;;5123862;27;20676;-76
2022/03/01 02:07:07;;;;;;;3.00;2.80;;;;;;;;;;5121643;27;20791;-71
2022/03/01 02:09:54;;;;;;;2.33;2.23;;;;;;;;;;5126167;27;20299;-70
2022/03/01 02:12:41;;;;;;;2.70;2.50;;;;;;;;;;5119899;27;20340;-71
2022/03/01 02:15:28;;;;;;;2.53;2.43;;;;;;;;;;5121062;27;20236;-71
2022/03/01 02:18:16;;;;;;;3.03;2.83;;;;;;;;;;5122221;27;20682;-78
2022/03/01 02:21:04;;;;;;;3.10;2.90;;;;;;;;;;5122529;27;20200;-70
2022/03/01 02:23:51;;;;;;;3.10;2.90;;;;;;;;;;5118547;27;20291;-70
2022/03/01 02:26:38;;;;;;;2.60;2.50;;;;;;;;;;5117925;27;20278;-71
2022/03/01 02:29:25;;;;;;;2.90;2.70;;;;;;;;;;5117999;27;20321;-70
2022/03/01 02:32:12;;;;;;;3.07;2.87;;;;;;;;;;5122958;27;20248;-71
2022/03/01 02:35:00;;;;;;;3.00;2.80;;;;;;;;;;5121199;27;20219;-71
2022/03/01 02:37:48;;;;;;;3.30;3.00;;;;;;;;;;5120396;27;20234;-71
2022/03/01 02:40:35;;;;;;;3.53;3.23;;;;;;;;;;5120821;27;20285;-71
2022/03/01 02:43:22;;;;;;;3.23;3.00;;;;;;;;;;5119839;27;20669;-71
2022/03/01 02:46:09;;;;;;;3.20;3.00;;;;;;;;;;5122575;27;20743;-70
2022/03/01 02:48:56;;;;;;;3.23;3.03;;;;;;;;;;5121124;27;20700;-71
2022/03/01 02:51:43;;;;;;;3.07;2.87;;;;;;;;;;5117631;27;20263;-70
2022/03/01 02:54:32;;;;;;;3.03;2.83;;;;;;;;;;5122596;27;20210;-70
2022/03/01 02:57:19;;;;;;;3.30;3.10;;;;;;;;;;5121960;27;20695;-71
2022/03/01 03:00:07;;;;;;;3.57;3.30;;;;;;;;;;5120781;27;20650;-71
2022/03/01 03:02:54;;;;;;;3.60;3.30;;;;;;;;;;5121107;27;20216;-73
2022/03/01 03:05:41;;;;;;;3.77;3.47;;;;;;;;;;5121714;27;20208;-71
2022/03/01 03:08:29;;;;;;;3.20;3.00;;;;;;;;;;5119691;27;20297;-71
2022/03/01 03:11:17;;;;;;;3.57;3.30;;;;;;;;;;5121890;27;20202;-71
2022/03/01 03:14:04;;;;;;;3.30;3.10;;;;;;;;;;5120155;27;20264;-71
2022/03/01 03:16:51;;;;;;;3.40;3.20;;;;;;;;;;5116155;27;20216;-71
2022/03/01 03:19:38;;;;;;;3.47;3.27;;;;;;;;;;5119515;27;20226;-71
2022/03/01 03:22:25;;;;;;;3.50;3.30;;;;;;;;;;5121541;27;20256;-70
2022/03/01 03:25:12;;;;;;;3.00;2.80;;;;;;;;;;5121119;27;20280;-71
2022/03/01 03:28:01;;;;;;;3.90;3.60;;;;;;;;;;5120717;27;20692;-71
2022/03/01 03:30:48;;;;;;;3.20;3.00;;;;;;;;;;5122311;27;20311;-70
2022/03/01 03:33:34;;;;;;;3.50;3.30;;;;;;;;;;5117567;27;20296;-71
2022/03/01 03:36:21;;;;;;;3.83;3.53;;;;;;;;;;5122993;27;20240;-70
2022/03/01 03:39:10;;;;;;;3.67;3.40;;;;;;;;;;5117079;27;20210;-71
2022/03/01 03:41:57;;;;;;;3.47;3.27;;;;;;;;;;5119161;27;20778;-71
2022/03/01 03:44:45;;;;;;;3.53;3.33;;;;;;;;;;5122020;27;20242;-71
2022/03/01 03:47:32;;;;;;;3.87;3.57;;;;;;;;;;5118637;27;20691;-74
2022/03/01 03:50:19;;;;;;;3.80;3.57;;;;;;;;;;5121911;27;20307;-71
2022/03/01 03:53:06;;;;;;;3.23;3.03;;;;;;;;;;5119832;27;20240;-71
2022/03/01 03:55:53;;;;;;;3.30;3.10;;;;;;;;;;5119164;27;20293;-71
2022/03/01 03:58:40;;;;;;;3.50;3.27;;;;;;;;;;5117514;28;20273;-71
2022/03/01 04:01:28;;;;;;;3.80;3.50;;;;;;;;;;5121483;28;20610;-71
2022/03/01 04:04:16;;;;;;;4.00;3.70;;;;;;;;;;5124285;27;20216;-71
2022/03/01 04:07:04;;;;;;;3.80;3.50;;;;;;;;;;5129599;27;20247;-71
2022/03/01 04:09:51;;;;;;;3.60;3.30;;;;;;;;;;5128490;27;20279;-71
2022/03/01 04:12:39;;;;;;;3.27;3.07;;;;;;;;;;5128396;27;20203;-71
2022/03/01 04:15:26;;;;;;;3.53;3.33;;;;;;;;;;5128499;27;20246;-71
2022/03/01 04:18:14;;;;;;;3.47;3.27;;;;;;;;;;5126794;27;20278;-70
2022/03/01 04:21:01;;;;;;;3.70;3.40;;;;;;;;;;5128766;27;20283;-71
2022/03/01 04:23:49;;;;;;;3.50;3.30;;;;;;;;;;5129884;27;20229;-70
2022/03/01 04:26:36;;;;;;;3.87;3.57;;;;;;;;;;5127528;27;20212;-71
2022/03/01 04:29:24;;;;;;;3.70;3.40;;;;;;;;;;5123129;27;20313;-71
2022/03/01 04:32:12;;;;;;;3.73;3.43;;;;;;;;;;5122287;27;20218;-72
2022/03/01 04:35:00;;;;;;;3.37;3.17;;;;;;;;;;5126812;27;20246;-71
2022/03/01 04:37:47;;;;;;;3.50;3.20;;;;;;;;;;5123520;27;20265;-71
2022/03/01 04:40:34;;;;;;;3.70;3.40;;;;;;;;;;5124550;27;20275;-71
2022/03/01 04:43:21;;;;;;;3.60;3.40;;;;;;;;;;5128436;27;20212;-71
2022/03/01 04:46:08;;;;;;;3.40;3.20;;;;;;;;;;5124127;27;20201;-71
2022/03/01 04:48:55;;;;;;;3.40;3.20;;;;;;;;;;5124864;27;20338;-70
2022/03/01 04:51:44;;;;;;;3.50;3.30;;;;;;;;;;5126539;27;20227;-71
2022/03/01 04:54:31;;;;;;;3.37;3.17;;;;;;;;;;5124950;27;20363;-71
2022/03/01 04:57:18;;;;;;;3.37;3.17;;;;;;;;;;5125950;27;20287;-70
2022/03/01 05:00:10;;;;;;;3.83;3.60;;;;;;;;;;5122069;27;20561;-71
2022/03/01 05:02:57;;;;;;;3.80;3.50;;;;;;;;;;5125711;27;20699;-70
2022/03/01 05:05:44;;;;;;;3.87;3.57;;;;;;;;;;5124363;27;20624;-71
2022/03/01 05:08:32;;;;;;;3.47;3.17;;;;;;;;;;5124610;27;20683;-71
2022/03/01 05:11:19;;;;;;;3.87;3.57;;;;;;;;;;5126147;27;20219;-71
2022/03/01 05:14:06;;;;;;;3.67;3.37;;;;;;;;;;5122676;27;20374;-71
2022/03/01 05:16:53;;;;;;;3.40;3.20;;;;;;;;;;5122625;27;20213;-71
2022/03/01 05:19:40;;;;;;;3.50;3.20;;;;;;;;;;5123768;27;20207;-71
2022/03/01 05:22:27;;;;;;;3.23;3.00;;;;;;;;;;5118591;27;20255;-71
2022/03/01 05:25:19;;;;;;;3.73;3.43;;;;;;;;;;5121242;27;20351;-71
2022/03/01 05:28:06;;;;;;;3.40;3.20;;;;;;;;;;5122682;27;20285;-70
2022/03/01 05:30:53;;;;;;;3.60;3.40;;;;;;;;;;5123666;27;20308;-71
2022/03/01 05:33:40;;;;;;;3.60;3.30;;;;;;;;;;5120123;27;20255;-70
2022/03/01 05:36:27;;;;;;;3.50;3.23;;;;;;;;;;5120205;27;20280;-70
2022/03/01 05:39:14;;;;;;;3.83;3.60;;;;;;;;;;5122306;27;20237;-71
2022/03/01 05:42:02;;;;;;;3.50;3.30;;;;;;;;;;5120211;27;20324;-71
2022/03/01 05:44:49;;;;;;;3.10;2.90;;;;;;;;;;5124939;27;20245;-71
2022/03/01 05:47:36;;;;;;;3.40;3.20;;;;;;;;;;5120536;27;20296;-71
2022/03/01 05:50:25;;;;;;;3.80;3.50;;;;;;;;;;5121503;27;20271;-71
2022/03/01 05:53:12;;;;;;;3.70;3.40;;;;;;;;;;5122803;27;20312;-71
2022/03/01 05:55:59;;;;;;;3.67;3.37;;;;;;;;;;5126680;27;20500;-70
2022/03/01 05:58:47;;;;;;;3.70;3.40;;;;;;;;;;5119837;27;20680;-75
2022/03/01 06:01:34;;;;;;;3.80;3.50;;;;;;;;;;5120004;27;20229;-71
2022/03/01 06:04:21;;;;;;;3.53;3.23;;;;;;;;;;5116989;27;20226;-71
2022/03/01 06:07:08;;;;;;;3.20;3.00;;;;;;;;;;5119309;27;20302;-71
2022/03/01 06:09:55;;;;;;;3.43;3.23;;;;;;;;;;5122897;27;20221;-70
2022/03/01 06:12:42;;;;;;;3.63;3.33;;;;;;;;;;5121933;27;20687;-71
2022/03/01 06:15:30;;;;;;;3.67;3.43;;;;;;;;;;5117773;27;20252;-71
2022/03/01 06:18:17;;;;;;;3.57;3.30;;;;;;;;;;5118429;27;20675;-71
2022/03/01 06:21:05;;;;;;;3.90;3.60;;;;;;;;;;5117571;27;20275;-71
2022/03/01 06:23:51;;;;;;;3.10;2.90;;;;;;;;;;5119381;27;20199;-71
2022/03/01 06:26:38;;;;;;;3.70;3.40;;;;;;;;;;5119560;27;20275;-71
2022/03/01 06:29:25;;;;;;;3.60;3.30;;;;;;;;;;5119054;27;20233;-71
2022/03/01 06:32:14;;;;;;;3.60;3.30;;;;;;;;;;5119539;27;20302;-71
2022/03/01 06:35:01;;;;;;;3.63;3.33;;;;;;;;;;5114982;27;20615;-71
2022/03/01 06:37:48;;;;;;;3.70;3.40;;;;;;;;;;5121434;27;20297;-71
2022/03/01 06:40:35;;;;;;;3.37;3.17;;;;;;;;;;5123731;27;20336;-71
2022/03/01 06:43:22;;;;;;;3.60;3.40;;;;;;;;;;5119050;27;20215;-71
2022/03/01 06:46:09;;;;;;;3.47;3.17;;;;;;;;;;5119516;27;20199;-71
2022/03/01 06:48:58;;;;;;;3.30;3.10;;;;;;;;;;5123231;27;20218;-71
2022/03/01 06:51:45;;;;;;;3.40;3.20;;;;;;;;;;5120639;27;20308;-71
2022/03/01 06:54:33;;;;;;;3.53;3.30;;;;;;;;;;5121605;27;20252;-70
2022/03/01 06:57:20;;;;;;;3.67;3.37;;;;;;;;;;5120633;27;20584;-71
2022/03/01 07:00:08;;;;;;;3.73;3.43;;;;;;;;;;5121081;27;20294;-71
2022/03/01 07:02:55;;;;;;;3.33;3.10;;;;;;;;;;5118912;27;20209;-71
2022/03/01 07:05:44;;;;;;;3.40;3.20;;;;;;;;;;5118509;27;20213;-73
2022/03/01 07:08:31;;;;;;;4.87;3.50;;;;;;;;;;5122706;27;20634;-71
2022/03/01 07:11:18;;;;;;;3.50;3.20;;;;;;;;;;5122133;27;20710;-71
2022/03/01 07:14:05;;;;;;;4.53;3.47;;;;;;;;;;5120297;27;20212;-71
2022/03/01 07:16:52;;;;;;;3.43;3.23;;;;;;;;;;5119089;27;20234;-71
2022/03/01 07:19:38;;;;;;;3.63;3.37;;;;;;;;;;5120505;27;20216;-71
2022/03/01 07:22:27;;;;;;;3.42;3.22;;;;;;;;;;5120828;27;20239;-70
2022/03/01 07:25:14;;;;;;;3.63;3.33;;;;;;;;;;5122115;27;20676;-69
2022/03/01 07:28:01;;;;;;;4.15;3.75;;;;;;;;;;5119825;27;20934;-70
2022/03/01 07:30:48;;;;;;;3.72;3.42;;;;;;;;;;5117967;27;20264;-69
2022/03/01 07:33:37;;;;;;;3.53;3.33;;;;;;;;;;5118670;27;20240;-69
2022/03/01 07:36:24;;;;;;;3.78;3.40;;;;;;;;;;5119962;27;20216;-69
2022/03/01 07:39:12;;;;;;;3.75;3.50;;;;;;;;;;5122795;27;20251;-70
2022/03/01 07:42:00;;;;;;;4.05;3.65;;;;;;;;;;5118497;27;20713;-69
2022/03/01 07:44:46;;;;;;;3.30;3.10;;;;;;;;;;5123394;27;20231;-69
2022/03/01 07:47:33;;;;;;;3.50;3.30;;;;;;;;;;5122343;27;20307;-70
2022/03/01 07:50:21;;;;;;;3.30;3.00;;;;;;;;;;5119860;27;20230;-70
2022/03/01 07:53:08;;;;;;;3.40;3.20;;;;;;;;;;5121324;27;20282;-69
2022/03/01 07:55:56;;;;;;;3.97;3.67;;;;;;;;;;5120752;27;20691;-70
2022/03/01 07:58:43;;;;;;;3.63;3.40;;;;;;;;;;5118321;28;20201;-70
2022/03/01 08:01:30;;;;;;;3.70;3.50;;;;;;;;;;5122909;28;20209;-70
2022/03/01 08:04:19;;;;;;;3.70;3.40;;;;;;;;;;5119349;28;20243;-70
2022/03/01 08:07:06;;;;;;;3.50;3.30;;;;;;;;;;5121530;28;20219;-70
2022/03/01 08:09:53;;;;;;;4.03;3.73;;;;;;;;;;5121841;28;20284;-72
2022/03/01 08:12:41;;;;;;;3.67;3.43;;;;;;;;;;5117431;28;20203;-72
2022/03/01 08:15:28;;;;;;;4.20;3.90;;;;;;;;;;5118515;28;20619;-73
2022/03/01 08:18:15;;;;;;;3.90;3.60;;;;;;;;;;5117959;28;20213;-72
2022/03/01 08:21:02;;;;;;;4.57;4.27;;;;;;;;;;5119588;28;20210;-72
2022/03/01 08:23:49;;;;;;;3.80;3.50;;;;;;;;;;5121429;28;20215;-72
2022/03/01 08:26:38;;;;;;;3.47;3.20;;;;;;;;;;5121022;28;20214;-72
2022/03/01 08:29:26;;;;;;;4.10;3.80;;;;;;;;;;5117231;28;20210;-71
2022/03/01 08:32:13;;;;;;;3.90;3.60;;;;;;;;;;5119640;28;20603;-72
2022/03/01 08:35:00;;;;;;;4.20;3.90;;;;;;;;;;5119314;28;20256;-72
2022/03/01 08:37:47;;;;;;;3.57;3.37;;;;;;;;;;5118986;28;20229;-72
2022/03/01 08:40:38;;;;;;;4.00;3.70;;;;;;;;;;5120163;28;20237;-72
2022/03/01 08:43:25;;;;;;;4.00;3.70;;;;;;;;;;5118540;28;20212;-71
2022/03/01 08:46:15;;;;;;;4.63;4.23;;;;;;;;;;5121822;28;20300;-72
2022/03/01 08:49:01;;;;;;;4.00;3.70;;;;;;;;;;5121484;27;20271;-72
2022/03/01 08:51:48;;;;;;;3.83;3.57;;;;;;;;;;5122522;27;20705;-72
2022/03/01 08:54:35;;;;;;;3.97;3.63;;;;;;;;;;5122530;27;20612;-72
2022/03/01 08:57:22;;;;;;;4.40;4.10;;;;;;;;;;5124525;27;20242;-72
2022/03/01 09:00:12;;;;;;;4.07;3.70;;;;;;;;;;5119312;27;20611;-72
2022/03/01 09:03:01;;;;;;;4.00;3.70;;;;;;;;;;5125552;27;20209;-72
2022/03/01 09:05:48;;;;;;;4.17;3.87;;;;;;;;;;5124817;27;20224;-72
2022/03/01 09:08:37;;;;;;;3.87;3.63;;;;;;;;;;5120870;27;20213;-72
2022/03/01 09:11:24;;;;;;;4.83;3.63;;;;;;;;;;5124622;27;20226;-71
2022/03/01 09:14:11;;;;;;;4.20;3.90;;;;;;;;;;5122489;27;20213;-72
2022/03/01 09:16:58;;;;;;;4.13;3.83;;;;;;;;;;5120364;27;20263;-72
2022/03/01 09:19:46;;;;;;;4.17;3.87;;;;;;;;;;5120356;27;20232;-72
2022/03/01 09:22:34;;;;;;;4.77;4.27;;;;;;;;;;5121848;27;20222;-72
2022/03/01 09:25:21;;;;;;;5.37;4.40;;;;;;;;;;5122573;27;20220;-72
2022/03/01 09:28:08;;;;;;;4.70;4.07;;;;;;;;;;5122082;27;20294;-72
2022/03/01 09:30:55;;;;;;;4.30;4.00;;;;;;;;;;5119269;27;20248;-72
2022/03/01 09:33:43;;;;;;;4.20;3.90;;;;;;;;;;5121660;27;20258;-73
2022/03/01 09:36:31;;;;;;;4.40;4.00;;;;;;;;;;5122682;27;20206;-72
2022/03/01 09:39:18;;;;;;;4.33;4.03;;;;;;;;;;5122400;27;20244;-72
2022/03/01 09:42:08;;;;;;;4.10;3.80;;;;;;;;;;5121038;27;20597;-72
2022/03/01 09:44:55;;;;;;;4.53;4.23;;;;;;;;;;5119508;27;20243;-72
2022/03/01 09:47:42;;;;;;;4.40;4.10;;;;;;;;;;5121170;27;20291;-72
2022/03/01 09:50:30;;;;;;;3.87;3.57;;;;;;;;;;5121371;27;20550;-72
2022/03/01 09:53:19;;;;;;;4.30;4.00;;;;;;;;;;5120662;27;20229;-72
2022/03/01 09:56:07;;;;;;;4.17;3.87;;;;;;;;;;5121743;27;20680;-73
2022/03/01 09:58:55;;;;;;;4.20;3.90;;;;;;;;;;5119449;27;20262;-72
2022/03/01 10:01:49;;;;;;;4.20;3.90;;;;;;;;;;5122497;27;20517;-72
2022/03/01 10:04:38;;;;;;;4.07;3.77;;;;;;;;;;5120599;27;20212;-72
2022/03/01 10:07:27;;;;;;;4.43;4.13;;;;;;;;;;5119926;27;20209;-72
2022/03/01 10:10:17;;;;;;;4.03;3.73;;;;;;;;;;5120680;27;20206;-72
2022/03/01 10:13:04;;;;;;;4.20;3.90;;;;;;;;;;5123993;27;20209;-72
2022/03/01 10:15:52;;;;;;;4.63;4.23;;;;;;;;;;5116837;27;20296;-72
2022/03/01 10:18:41;;;;;;;4.40;4.00;;;;;;;;;;5121317;27;20289;-72
2022/03/01 10:21:28;;;;;;;4.33;3.93;;;;;;;;;;5118907;27;20694;-72
2022/03/01 10:24:15;;;;;;;4.50;4.10;;;;;;;;;;5118371;27;20669;-71
2022/03/01 10:27:05;;;;;;;4.40;4.10;;;;;;;;;;5118056;27;20218;-72
2022/03/01 10:29:52;;;;;;;4.50;4.10;;;;;;;;;;5119827;27;20252;-72
2022/03/01 10:32:39;;;;;;;5.03;4.63;;;;;;;;;;5116421;27;20246;-72
2022/03/01 10:35:26;;;;;;;4.50;4.10;;;;;;;;;;5117691;27;20215;-71
2022/03/01 10:38:13;;;;;;;4.17;3.83;;;;;;;;;;5119571;27;20236;-72
2022/03/01 10:41:02;;;;;;;3.90;3.60;;;;;;;;;;5121450;27;20315;-72
2022/03/01 10:43:54;;;;;;;5.70;4.43;;;;;;;;;;5121864;27;20658;-72
2022/03/01 10:46:43;;;;;;;4.33;3.93;;;;;;;;;;5123336;27;20306;-72
2022/03/01 10:49:32;;;;;;;4.53;4.13;;;;;;;;;;5121994;27;20204;-72
2022/03/01 10:52:19;;;;;;;3.97;3.67;;;;;;;;;;5122987;27;20228;-71
2022/03/01 10:55:21;;;;;;;4.70;4.30;;;;;;;;;;5123820;27;20692;-72
2022/03/01 10:58:10;;;;;;;4.53;3.90;;;;;;;;;;5120679;27;20257;-72
2022/03/01 11:00:59;;;;;;;4.47;4.00;;;;;;;;;;5118306;27;20225;-70
2022/03/01 11:03:48;;;;;;;4.60;4.20;;;;;;;;;;5123717;27;20243;-72
2022/03/01 11:06:36;;;;;;;4.43;4.10;;;;;;;;;;5121405;27;20232;-71
2022/03/01 11:09:25;;;;;;;4.27;3.97;;;;;;;;;;5123801;27;20285;-72
2022/03/01 11:12:13;;;;;;;4.70;4.30;;;;;;;;;;5121105;27;20238;-72
2022/03/01 11:15:07;;;;;;;4.50;4.10;;;;;;;;;;5125269;27;20231;-72
2022/03/01 11:18:04;;;;;;;4.00;3.70;;;;;;;;;;5117712;27;20208;-72
2022/03/01 11:20:53;;;;;;;4.23;3.93;;;;;;;;;;5121685;27;20216;-72
2022/03/01 11:23:42;;;;;;;5.13;4.03;;;;;;;;;;5119636;27;20299;-72
2022/03/01 11:26:36;;;;;;;3.97;3.53;;;;;;;;;;5120439;27;20218;-71
2022/03/01 11:29:25;;;;;;;4.47;4.07;;;;;;;;;;5117705;27;20218;-72
2022/03/01 11:32:14;;;;;;;3.90;3.60;;;;;;;;;;5121290;27;20227;-72
2022/03/01 11:35:03;;;;;;;3.90;3.60;;;;;;;;;;5117181;27;20616;-72
2022/03/01 11:38:00;;;;;;;4.40;4.00;;;;;;;;;;5119444;27;20210;-72
2022/03/01 11:40:50;;;;;;;4.87;4.17;;;;;;;;;;5118664;27;20288;-72
2022/03/01 11:43:39;;;;;;;4.13;3.73;;;;;;;;;;5117860;27;20322;-72
2022/03/01 11:46:26;;;;;;;4.10;3.70;;;;;;;;;;5118228;27;20210;-72
2022/03/01 11:49:14;;;;;;;4.10;3.80;;;;;;;;;;5118895;27;20280;-72
2022/03/01 11:52:04;;;;;;;4.00;3.70;;;;;;;;;;5116566;27;20242;-72
2022/03/01 11:54:52;;;;;;;4.33;3.93;;;;;;;;;;5117367;27;20308;-72
2022/03/01 11:57:39;;;;;;;3.90;3.63;;;;;;;;;;5118433;27;20597;-72
2022/03/01 12:00:29;;;;;;;4.53;4.13;;;;;;;;;;5118384;28;20219;-72
2022/03/01 12:03:17;;;;;;;4.30;3.90;;;;;;;;;;5116296;28;20256;-72
2022/03/01 12:06:05;;;;;;;4.10;3.77;;;;;;;;;;5120126;28;20263;-72
2022/03/01 12:08:58;;;;;;;3.63;3.40;;;;;;;;;;5122175;28;20346;-72
2022/03/01 12:11:47;;;;;;;4.10;3.80;;;;;;;;;;5115843;28;20223;-71
2022/03/01 12:14:34;;;;;;;3.70;3.50;;;;;;;;;;5116755;28;20315;-72
2022/03/01 12:17:21;;;;;;;4.00;3.60;;;;;;;;;;5121902;28;20210;-72
2022/03/01 12:20:11;;;;;;;4.30;3.90;;;;;;;;;;5117459;28;20259;-72
2022/03/01 12:23:01;;;;;;;4.33;4.03;;;;;;;;;;5120871;27;20222;-72
2022/03/01 12:25:50;;;;;;;3.80;3.50;;;;;;;;;;5124688;27;20211;-72
2022/03/01 12:28:38;;;;;;;4.40;4.00;;;;;;;;;;5121299;27;20202;-72
2022/03/01 12:31:27;;;;;;;4.10;3.80;;;;;;;;;;5120772;27;20222;-72
2022/03/01 12:34:14;;;;;;;3.97;3.60;;;;;;;;;;5124129;27;20243;-72
2022/03/01 12:37:04;;;;;;;3.87;3.57;;;;;;;;;;5125338;27;20211;-72
2022/03/01 12:39:54;;;;;;;4.00;3.70;;;;;;;;;;5125598;27;20191;-72
2022/03/01 12:42:42;;;;;;;4.13;3.83;;;;;;;;;;5127644;27;20318;-71
2022/03/01 12:45:37;;;;;;;4.17;3.87;;;;;;;;;;5125050;27;20284;-72
2022/03/01 12:48:24;;;;;;;3.77;3.50;;;;;;;;;;5121828;27;20301;-72
2022/03/01 12:51:12;;;;;;;3.90;3.60;;;;;;;;;;5123614;27;20203;-72
2022/03/01 12:54:01;;;;;;;3.90;3.60;;;;;;;;;;5119020;27;20289;-72
2022/03/01 12:56:49;;;;;;;3.90;3.60;;;;;;;;;;5122412;27;20207;-73
2022/03/01 12:59:39;;;;;;;4.33;3.20;;;;;;;;;;5123353;27;20242;-72
2022/03/01 13:02:26;;;;;;;4.00;3.70;;;;;;;;;;5122741;27;20739;-72
2022/03/01 13:05:25;;;;;;;3.70;3.40;;;;;;;;;;5122553;27;20340;-72
2022/03/01 13:08:17;;;;;;;3.40;3.20;;;;;;;;;;5123635;27;20217;-72
2022/03/01 13:11:06;;;;;;;3.70;3.40;;;;;;;;;;5123309;27;20213;-72
2022/03/01 13:13:56;;;;;;;3.30;3.03;;;;;;;;;;5121392;27;20212;-72
2022/03/01 13:16:46;;;;;;;3.80;3.50;;;;;;;;;;5119158;27;20705;-72
2022/03/01 13:19:35;;;;;;;3.50;3.20;;;;;;;;;;5123838;27;20202;-71
2022/03/01 13:22:22;;;;;;;3.70;3.40;;;;;;;;;;5121968;27;20220;-72
2022/03/01 13:25:10;;;;;;;4.00;3.60;;;;;;;;;;5122153;27;20246;-72
2022/03/01 13:27:57;;;;;;;3.50;3.30;;;;;;;;;;5121166;27;20289;-72
2022/03/01 13:30:44;;;;;;;3.93;3.63;;;;;;;;;;5118131;27;20243;-72
2022/03/01 13:33:34;;;;;;;3.37;3.07;;;;;;;;;;5121018;27;20292;-72
2022/03/01 13:36:21;;;;;;;3.70;3.40;;;;;;;;;;5119707;27;20218;-72
2022/03/01 13:39:11;;;;;;;3.43;3.13;;;;;;;;;;5121487;27;20205;-72
2022/03/01 13:42:01;;;;;;;3.63;3.40;;;;;;;;;;5118953;27;20230;-72
2022/03/01 13:44:51;;;;;;;3.30;3.10;;;;;;;;;;5123546;27;20210;-72
2022/03/01 13:47:38;;;;;;;3.67;3.40;;;;;;;;;;5122118;27;20242;-72
2022/03/01 13:50:26;;;;;;;3.60;3.30;;;;;;;;;;5122727;27;20250;-72
2022/03/01 13:53:15;;;;;;;3.50;3.20;;;;;;;;;;5120180;27;20640;-72
2022/03/01 13:56:03;;;;;;;3.30;3.10;;;;;;;;;;5120458;27;20203;-72
2022/03/01 13:58:49;;;;;;;3.30;3.07;;;;;;;;;;5119593;27;20207;-72
2022/03/01 14:01:36;;;;;;;3.70;3.40;;;;;;;;;;5122436;27;20345;-72
2022/03/01 14:04:24;;;;;;;3.70;3.40;;;;;;;;;;5123341;27;20214;-72
2022/03/01 14:07:13;;;;;;;3.50;3.20;;;;;;;;;;5118113;27;20204;-72
2022/03/01 14:10:00;;;;;;;4.03;3.73;;;;;;;;;;5121226;27;20207;-72
2022/03/01 14:12:47;;;;;;;3.80;3.50;;;;;;;;;;5122452;27;20690;-72
2022/03/01 14:15:36;;;;;;;3.57;3.30;;;;;;;;;;5121725;27;20209;-72
2022/03/01 14:18:34;;;;;;;3.80;3.50;;;;;;;;;;5119383;27;20676;-72
2022/03/01 14:21:23;;;;;;;3.07;2.87;;;;;;;;;;5121242;27;20313;-72
2022/03/01 14:24:11;;;;;;;3.57;3.27;;;;;;;;;;5118445;27;20209;-69
2022/03/01 14:26:58;;;;;;;3.37;3.17;;;;;;;;;;5122870;27;20209;-71
2022/03/01 14:29:45;;;;;;;3.37;3.13;;;;;;;;;;5124371;27;20224;-72
2022/03/01 14:32:32;;;;;;;3.90;3.20;;;;;;;;;;5117194;27;20227;-72
2022/03/01 14:35:19;;;;;;;3.70;3.40;;;;;;;;;;5119701;27;20352;-72
2022/03/01 14:38:06;;;;;;;3.57;3.27;;;;;;;;;;5122473;27;20285;-72
2022/03/01 14:40:54;;;;;;;3.93;3.60;;;;;;;;;;5121185;27;20251;-72
2022/03/01 14:43:41;;;;;;;3.80;3.17;;;;;;;;;;5121579;27;20235;-72
2022/03/01 14:46:29;;;;;;;3.70;3.40;;;;;;;;;;5121243;27;20309;-72
2022/03/01 14:49:16;;;;;;;4.10;3.20;;;;;;;;;;5121249;27;20680;-72
2022/03/01 14:52:03;;;;;;;3.90;3.60;;;;;;;;;;5123037;27;20350;-72
2022/03/01 14:54:50;;;;;;;3.83;3.47;;;;;;;;;;5120647;27;20234;-72
2022/03/01 14:57:38;;;;;;;3.40;3.20;;;;;;;;;;5123628;27;20238;-71
2022/03/01 15:00:26;;;;;;;3.50;3.20;;;;;;;;;;5120264;27;20228;-72
2022/03/01 15:03:12;;;;;;;4.20;3.50;;;;;;;;;;5119317;27;20271;-72
2022/03/01 15:05:59;;;;;;;3.73;3.43;;;;;;;;;;5122958;27;20286;-72
2022/03/01 15:08:46;;;;;;;3.47;3.20;;;;;;;;;;5122762;27;20619;-72
2022/03/01 15:11:33;;;;;;;3.50;3.20;;;;;;;;;;5118454;27;20205;-67
2022/03/01 15:14:22;;;;;;;3.13;2.93;;;;;;;;;;5118909;27;20245;-67
2022/03/01 15:17:09;;;;;;;4.07;3.47;;;;;;;;;;5120572;27;20209;-67
2022/03/01 15:19:55;;;;;;;3.40;3.20;;;;;;;;;;5121266;27;20270;-67
2022/03/01 15:22:43;;;;;;;3.80;3.50;;;;;;;;;;5121071;27;20797;-67
2022/03/01 15:25:30;;;;;;;3.47;3.27;;;;;;;;;;5123039;27;20278;-67
2022/03/01 15:28:17;;;;;;;4.20;3.83;;;;;;;;;;5118439;27;20262;-67
2022/03/01 15:31:05;;;;;;;4.03;3.40;;;;;;;;;;5120064;27;20211;-68
2022/03/01 15:33:52;;;;;;;3.87;3.33;;;;;;;;;;5117687;27;20382;-67
2022/03/01 15:36:39;;;;;;;4.13;3.60;;;;;;;;;;5119734;27;20249;-67
2022/03/01 15:39:26;;;;;;;3.60;3.30;;;;;;;;;;5120842;27;20198;-68
2022/03/01 15:42:15;;;;;;;3.80;3.50;;;;;;;;;;5121799;27;20688;-67
2022/03/01 15:45:06;;;;;;;3.57;3.27;;;;;;;;;;5121893;27;20213;-67
2022/03/01 15:47:55;;;;;;;3.70;3.33;;;;;;;;;;5116709;27;20196;-67
2022/03/01 15:50:42;;;;;;;3.60;3.40;;;;;;;;;;5116570;27;20344;-68
2022/03/01 15:53:29;;;;;;;4.33;3.73;;;;;;;;;;5118530;27;20236;-67
2022/03/01 15:56:16;;;;;;;3.73;3.43;;;;;;;;;;5121687;27;20282;-67
2022/03/01 15:59:03;;;;;;;3.30;3.10;;;;;;;;;;5116241;28;20207;-67
2022/03/01 16:01:50;;;;;;;3.80;3.50;;;;;;;;;;5120954;27;20296;-67
2022/03/01 16:04:38;;;;;;;3.73;3.43;;;;;;;;;;5118218;28;20305;-67
2022/03/01 16:07:25;;;;;;;4.03;3.63;;;;;;;;;;5117049;28;20989;-67
2022/03/01 16:10:13;;;;;;;3.53;3.33;;;;;;;;;;5118582;28;20214;-67
2022/03/01 16:13:00;;;;;;;3.63;3.33;;;;;;;;;;5117840;28;20226;-67
2022/03/01 16:15:47;;;;;;;3.90;3.60;;;;;;;;;;5116323;28;20286;-68
2022/03/01 16:18:36;;;;;;;3.93;3.63;;;;;;;;;;5118882;28;20670;-67
2022/03/01 16:21:24;;;;;;;3.80;3.53;;;;;;;;;;5121506;28;20216;-64
2022/03/01 16:24:12;;;;;;;3.90;3.60;;;;;;;;;;5120686;28;20234;-65
2022/03/01 16:26:59;;;;;;;3.87;3.57;;;;;;;;;;5117498;28;20258;-64
2022/03/01 16:29:46;;;;;;;3.93;3.63;;;;;;;;;;5118353;28;20689;-64
2022/03/01 16:32:33;;;;;;;3.73;3.43;;;;;;;;;;5118398;28;20202;-68
2022/03/01 16:35:20;;;;;;;3.80;3.50;;;;;;;;;;5123002;28;20201;-67
2022/03/01 16:38:08;;;;;;;3.70;3.40;;;;;;;;;;5118202;28;20288;-67
2022/03/01 16:40:55;;;;;;;3.97;3.67;;;;;;;;;;5120633;28;20607;-67
2022/03/01 16:43:42;;;;;;;4.10;3.80;;;;;;;;;;5118411;28;20282;-67
2022/03/01 16:46:32;;;;;;;3.80;3.50;;;;;;;;;;5118522;28;20222;-67
2022/03/01 16:49:19;;;;;;;4.27;3.97;;;;;;;;;;5123527;28;20206;-67